sensor_id;sensor_type;location;lat;lon;timestamp;temperature;humidity
20446;DHT22;10382;49.140;9.234;2022-09-29T00:00:43;10.70;99.90
20446;DHT22;10382;49.140;9.234;2022-09-29T00:03:10;10.70;99.90
20446;DHT22;10382;49.140;9.234;2022-09-29T00:05:37;10.70;99.90
20446;DHT22;10382;49.140;9.234;2022-09-29T00:08:05;10.80;99.90
20446;DHT22;10382;49.140;9.234;2022-09-29T00:10:32;10.70;99.90
20446;DHT22;10382;49.140;9.234;2022-09-29T00:12:59;10.60;99.90
20446;DHT22;10382;49.140;9.234;2022-09-29T00:15:26;10.60;99.90
20446;DHT22;10382;49.140;9.234;2022-09-29T00:17:52;10.60;99.90
20446;DHT22;10382;49.140;9.234;2022-09-29T00:20:19;10.70;99.90
20446;DHT22;10382;49.140;9.234;2022-09-29T00:22:49;10.70;99.90
20446;DHT22;10382;49.140;9.234;2022-09-29T00:25:17;10.70;99.90
20446;DHT22;10382;49.140;9.234;2022-09-29T00:27:44;10.80;99.90
20446;DHT22;10382;49.140;9.234;2022-09-29T00:30:11;10.90;99.90
20446;DHT22;10382;49.140;9.234;2022-09-29T00:32:38;10.90;99.90
20446;DHT22;10382;49.140;9.234;2022-09-29T00:35:07;11.00;99.90
20446;DHT22;10382;49.140;9.234;2022-09-29T00:37:35;11.00;99.90
20446;DHT22;10382;49.140;9.234;2022-09-29T00:40:03;11.00;99.90
20446;DHT22;10382;49.140;9.234;2022-09-29T00:42:31;11.00;99.90
20446;DHT22;10382;49.140;9.234;2022-09-29T00:45:04;11.10;99.90
20446;DHT22;10382;49.140;9.234;2022-09-29T00:47:33;11.10;99.90
20446;DHT22;10382;49.140;9.234;2022-09-29T00:50:04;11.20;99.90
20446;DHT22;10382;49.140;9.234;2022-09-29T00:52:35;11.20;99.90
20446;DHT22;10382;49.140;9.234;2022-09-29T00:55:06;11.20;99.90
20446;DHT22;10382;49.140;9.234;2022-09-29T00:57:38;11.20;99.90
20446;DHT22;10382;49.140;9.234;2022-09-29T01:00:08;11.10;99.90
20446;DHT22;10382;49.140;9.234;2022-09-29T01:02:38;11.10;99.90
20446;DHT22;10382;49.140;9.234;2022-09-29T01:05:09;11.10;99.90
20446;DHT22;10382;49.140;9.234;2022-09-29T01:07:38;11.10;99.90
20446;DHT22;10382;49.140;9.234;2022-09-29T01:10:06;11.10;99.90
20446;DHT22;10382;49.140;9.234;2022-09-29T01:12:35;11.10;99.90
20446;DHT22;10382;49.140;9.234;2022-09-29T01:15:02;11.10;99.90
20446;DHT22;10382;49.140;9.234;2022-09-29T01:17:29;11.00;99.90
20446;DHT22;10382;49.140;9.234;2022-09-29T01:20:02;11.00;99.90
20446;DHT22;10382;49.140;9.234;2022-09-29T01:23:14;10.90;99.90
20446;DHT22;10382;49.140;9.234;2022-09-29T01:26:17;10.90;99.90
20446;DHT22;10382;49.140;9.234;2022-09-29T01:31:56;10.80;99.90
20446;DHT22;10382;49.140;9.234;2022-09-29T01:34:30;10.80;99.90
20446;DHT22;10382;49.140;9.234;2022-09-29T01:37:08;10.80;99.90
20446;DHT22;10382;49.140;9.234;2022-09-29T01:39:40;10.70;99.90
20446;DHT22;10382;49.140;9.234;2022-09-29T01:42:14;10.70;99.90
20446;DHT22;10382;49.140;9.234;2022-09-29T01:44:46;10.70;99.90
20446;DHT22;10382;49.140;9.234;2022-09-29T01:47:19;10.70;99.90
20446;DHT22;10382;49.140;9.234;2022-09-29T01:49:53;10.50;99.90
20446;DHT22;10382;49.140;9.234;2022-09-29T01:52:24;10.40;99.90
20446;DHT22;10382;49.140;9.234;2022-09-29T01:54:56;10.40;99.90
20446;DHT22;10382;49.140;9.234;2022-09-29T01:57:28;10.40;99.90
20446;DHT22;10382;49.140;9.234;2022-09-29T02:00:01;10.50;99.90
20446;DHT22;10382;49.140;9.234;2022-09-29T02:02:33;10.50;99.90
20446;DHT22;10382;49.140;9.234;2022-09-29T02:05:06;10.50;99.90
20446;DHT22;10382;49.140;9.234;2022-09-29T02:07:37;10.50;99.90
20446;DHT22;10382;49.140;9.234;2022-09-29T02:10:09;10.50;99.90
20446;DHT22;10382;49.140;9.234;2022-09-29T02:12:39;10.60;99.90
20446;DHT22;10382;49.140;9.234;2022-09-29T02:15:08;10.60;99.90
20446;DHT22;10382;49.140;9.234;2022-09-29T02:17:42;10.70;99.90
20446;DHT22;10382;49.140;9.234;2022-09-29T02:20:11;10.80;99.90
20446;DHT22;10382;49.140;9.234;2022-09-29T02:22:39;10.80;99.90
20446;DHT22;10382;49.140;9.234;2022-09-29T02:25:08;10.90;99.90
20446;DHT22;10382;49.140;9.234;2022-09-29T02:27:36;10.90;99.90
20446;DHT22;10382;49.140;9.234;2022-09-29T02:30:05;10.90;99.90
20446;DHT22;10382;49.140;9.234;2022-09-29T02:32:34;10.90;99.90
20446;DHT22;10382;49.140;9.234;2022-09-29T02:35:05;10.90;99.90
20446;DHT22;10382;49.140;9.234;2022-09-29T02:37:40;10.90;99.90
20446;DHT22;10382;49.140;9.234;2022-09-29T02:40:31;10.90;99.90
20446;DHT22;10382;49.140;9.234;2022-09-29T02:43:25;10.90;99.90
20446;DHT22;10382;49.140;9.234;2022-09-29T02:46:06;11.00;99.90
20446;DHT22;10382;49.140;9.234;2022-09-29T02:48:48;11.00;99.90
20446;DHT22;10382;49.140;9.234;2022-09-29T02:51:23;11.10;99.90
20446;DHT22;10382;49.140;9.234;2022-09-29T02:54:00;11.10;99.90
20446;DHT22;10382;49.140;9.234;2022-09-29T02:56:37;11.10;99.90
20446;DHT22;10382;49.140;9.234;2022-09-29T02:59:08;11.10;99.90
20446;DHT22;10382;49.140;9.234;2022-09-29T03:01:46;11.20;99.90
20446;DHT22;10382;49.140;9.234;2022-09-29T03:04:13;11.20;99.90
20446;DHT22;10382;49.140;9.234;2022-09-29T03:06:41;11.20;99.90
20446;DHT22;10382;49.140;9.234;2022-09-29T03:09:08;11.20;99.90
20446;DHT22;10382;49.140;9.234;2022-09-29T03:11:35;11.20;99.90
20446;DHT22;10382;49.140;9.234;2022-09-29T03:14:02;11.20;99.90
20446;DHT22;10382;49.140;9.234;2022-09-29T03:16:31;11.20;99.90
20446;DHT22;10382;49.140;9.234;2022-09-29T03:18:58;11.10;99.90
20446;DHT22;10382;49.140;9.234;2022-09-29T03:21:25;11.00;99.90
20446;DHT22;10382;49.140;9.234;2022-09-29T03:23:53;11.00;99.90
20446;DHT22;10382;49.140;9.234;2022-09-29T03:26:20;10.90;99.90
20446;DHT22;10382;49.140;9.234;2022-09-29T03:28:48;10.80;99.90
20446;DHT22;10382;49.140;9.234;2022-09-29T03:31:15;10.70;99.90
20446;DHT22;10382;49.140;9.234;2022-09-29T03:33:42;10.70;99.90
20446;DHT22;10382;49.140;9.234;2022-09-29T03:36:09;10.60;99.90
20446;DHT22;10382;49.140;9.234;2022-09-29T03:38:37;10.70;99.90
20446;DHT22;10382;49.140;9.234;2022-09-29T03:41:05;10.70;99.90
20446;DHT22;10382;49.140;9.234;2022-09-29T03:43:32;10.70;99.90
20446;DHT22;10382;49.140;9.234;2022-09-29T03:45:59;10.70;99.90
20446;DHT22;10382;49.140;9.234;2022-09-29T03:48:26;10.80;99.90
20446;DHT22;10382;49.140;9.234;2022-09-29T03:50:56;10.80;99.90
20446;DHT22;10382;49.140;9.234;2022-09-29T03:53:23;10.80;99.90
20446;DHT22;10382;49.140;9.234;2022-09-29T03:55:50;10.70;99.90
20446;DHT22;10382;49.140;9.234;2022-09-29T03:58:18;10.80;99.90
20446;DHT22;10382;49.140;9.234;2022-09-29T04:00:47;10.80;99.90
20446;DHT22;10382;49.140;9.234;2022-09-29T04:03:14;10.70;99.90
20446;DHT22;10382;49.140;9.234;2022-09-29T04:05:41;10.70;99.90
20446;DHT22;10382;49.140;9.234;2022-09-29T04:08:08;10.70;99.90
20446;DHT22;10382;49.140;9.234;2022-09-29T04:10:35;10.60;99.90
20446;DHT22;10382;49.140;9.234;2022-09-29T04:13:02;10.60;99.90
20446;DHT22;10382;49.140;9.234;2022-09-29T04:15:31;10.60;99.90
20446;DHT22;10382;49.140;9.234;2022-09-29T04:17:58;10.60;99.90
20446;DHT22;10382;49.140;9.234;2022-09-29T04:20:25;10.50;99.90
20446;DHT22;10382;49.140;9.234;2022-09-29T04:22:52;10.50;99.90
20446;DHT22;10382;49.140;9.234;2022-09-29T04:25:19;10.40;99.90
20446;DHT22;10382;49.140;9.234;2022-09-29T04:27:46;10.40;99.90
20446;DHT22;10382;49.140;9.234;2022-09-29T04:30:13;10.40;99.90
20446;DHT22;10382;49.140;9.234;2022-09-29T04:32:41;10.40;99.90
20446;DHT22;10382;49.140;9.234;2022-09-29T04:35:08;10.30;99.90
20446;DHT22;10382;49.140;9.234;2022-09-29T04:37:35;10.30;99.90
20446;DHT22;10382;49.140;9.234;2022-09-29T04:40:04;10.20;99.90
20446;DHT22;10382;49.140;9.234;2022-09-29T04:42:31;10.30;99.90
20446;DHT22;10382;49.140;9.234;2022-09-29T04:44:58;10.30;99.90
20446;DHT22;10382;49.140;9.234;2022-09-29T04:47:25;10.30;99.90
20446;DHT22;10382;49.140;9.234;2022-09-29T04:49:53;10.30;99.90
20446;DHT22;10382;49.140;9.234;2022-09-29T04:52:20;10.30;99.90
20446;DHT22;10382;49.140;9.234;2022-09-29T04:54:47;10.30;99.90
20446;DHT22;10382;49.140;9.234;2022-09-29T04:57:13;10.30;99.90
20446;DHT22;10382;49.140;9.234;2022-09-29T04:59:40;10.20;99.90
20446;DHT22;10382;49.140;9.234;2022-09-29T05:02:07;10.30;99.90
20446;DHT22;10382;49.140;9.234;2022-09-29T05:04:34;10.30;99.90
20446;DHT22;10382;49.140;9.234;2022-09-29T05:07:03;10.20;99.90
20446;DHT22;10382;49.140;9.234;2022-09-29T05:09:30;10.10;99.90
20446;DHT22;10382;49.140;9.234;2022-09-29T05:11:57;9.90;99.90
20446;DHT22;10382;49.140;9.234;2022-09-29T05:14:24;10.00;99.90
20446;DHT22;10382;49.140;9.234;2022-09-29T05:16:53;10.00;99.90
20446;DHT22;10382;49.140;9.234;2022-09-29T05:19:20;9.90;99.90
20446;DHT22;10382;49.140;9.234;2022-09-29T05:21:47;9.90;99.90
20446;DHT22;10382;49.140;9.234;2022-09-29T05:24:15;9.90;99.90
20446;DHT22;10382;49.140;9.234;2022-09-29T05:26:42;10.00;99.90
20446;DHT22;10382;49.140;9.234;2022-09-29T05:29:09;10.00;99.90
20446;DHT22;10382;49.140;9.234;2022-09-29T05:31:35;10.10;99.90
20446;DHT22;10382;49.140;9.234;2022-09-29T05:34:02;10.00;99.90
20446;DHT22;10382;49.140;9.234;2022-09-29T05:36:29;10.10;99.90
20446;DHT22;10382;49.140;9.234;2022-09-29T05:38:56;10.00;99.90
20446;DHT22;10382;49.140;9.234;2022-09-29T05:41:24;10.10;99.90
20446;DHT22;10382;49.140;9.234;2022-09-29T05:43:52;10.20;99.90
20446;DHT22;10382;49.140;9.234;2022-09-29T05:46:20;10.30;99.90
20446;DHT22;10382;49.140;9.234;2022-09-29T05:48:48;10.30;99.90
20446;DHT22;10382;49.140;9.234;2022-09-29T05:51:17;10.30;99.90
20446;DHT22;10382;49.140;9.234;2022-09-29T05:53:45;10.20;99.90
20446;DHT22;10382;49.140;9.234;2022-09-29T05:56:16;10.20;99.90
20446;DHT22;10382;49.140;9.234;2022-09-29T05:58:45;10.20;99.90
20446;DHT22;10382;49.140;9.234;2022-09-29T06:01:13;10.30;99.90
20446;DHT22;10382;49.140;9.234;2022-09-29T06:03:40;10.40;99.90
20446;DHT22;10382;49.140;9.234;2022-09-29T06:06:08;10.50;99.90
20446;DHT22;10382;49.140;9.234;2022-09-29T06:08:36;10.70;99.90
20446;DHT22;10382;49.140;9.234;2022-09-29T06:11:05;10.80;99.90
20446;DHT22;10382;49.140;9.234;2022-09-29T06:13:33;10.90;99.90
20446;DHT22;10382;49.140;9.234;2022-09-29T06:16:01;10.90;99.90
20446;DHT22;10382;49.140;9.234;2022-09-29T06:18:29;11.00;99.90
20446;DHT22;10382;49.140;9.234;2022-09-29T06:21:00;11.00;99.90
20446;DHT22;10382;49.140;9.234;2022-09-29T06:23:27;11.10;99.90
20446;DHT22;10382;49.140;9.234;2022-09-29T06:25:56;11.20;99.90
20446;DHT22;10382;49.140;9.234;2022-09-29T06:28:23;11.20;99.90
20446;DHT22;10382;49.140;9.234;2022-09-29T06:30:50;11.20;99.90
20446;DHT22;10382;49.140;9.234;2022-09-29T06:33:18;11.30;99.90
20446;DHT22;10382;49.140;9.234;2022-09-29T06:35:46;11.40;99.90
20446;DHT22;10382;49.140;9.234;2022-09-29T06:38:31;11.30;99.90
20446;DHT22;10382;49.140;9.234;2022-09-29T06:40:58;11.30;99.90
20446;DHT22;10382;49.140;9.234;2022-09-29T06:43:25;11.40;99.90
20446;DHT22;10382;49.140;9.234;2022-09-29T06:45:52;11.60;99.90
20446;DHT22;10382;49.140;9.234;2022-09-29T06:48:20;11.70;99.90
20446;DHT22;10382;49.140;9.234;2022-09-29T06:50:47;11.80;99.90
20446;DHT22;10382;49.140;9.234;2022-09-29T06:53:14;11.90;99.90
20446;DHT22;10382;49.140;9.234;2022-09-29T06:55:41;12.00;99.90
20446;DHT22;10382;49.140;9.234;2022-09-29T06:58:08;12.00;99.90
20446;DHT22;10382;49.140;9.234;2022-09-29T07:00:36;12.10;99.90
20446;DHT22;10382;49.140;9.234;2022-09-29T07:03:03;12.30;99.90
20446;DHT22;10382;49.140;9.234;2022-09-29T07:05:33;12.30;99.90
20446;DHT22;10382;49.140;9.234;2022-09-29T07:08:00;12.40;99.90
20446;DHT22;10382;49.140;9.234;2022-09-29T07:10:28;12.50;99.90
20446;DHT22;10382;49.140;9.234;2022-09-29T07:12:55;12.50;99.90
20446;DHT22;10382;49.140;9.234;2022-09-29T07:15:22;12.50;99.90
20446;DHT22;10382;49.140;9.234;2022-09-29T07:17:56;12.50;99.90
20446;DHT22;10382;49.140;9.234;2022-09-29T07:20:23;12.60;99.90
20446;DHT22;10382;49.140;9.234;2022-09-29T07:22:52;12.70;99.90
20446;DHT22;10382;49.140;9.234;2022-09-29T07:25:19;12.80;99.90
20446;DHT22;10382;49.140;9.234;2022-09-29T07:27:46;12.90;99.90
20446;DHT22;10382;49.140;9.234;2022-09-29T07:30:14;13.00;99.90
20446;DHT22;10382;49.140;9.234;2022-09-29T07:32:41;13.10;99.90
20446;DHT22;10382;49.140;9.234;2022-09-29T07:35:08;13.10;99.90
20446;DHT22;10382;49.140;9.234;2022-09-29T07:37:35;13.20;99.90
20446;DHT22;10382;49.140;9.234;2022-09-29T07:40:04;13.30;99.90
20446;DHT22;10382;49.140;9.234;2022-09-29T07:42:31;13.40;99.90
20446;DHT22;10382;49.140;9.234;2022-09-29T07:44:58;13.50;99.90
20446;DHT22;10382;49.140;9.234;2022-09-29T07:47:25;13.60;99.90
20446;DHT22;10382;49.140;9.234;2022-09-29T07:49:51;13.70;99.90
20446;DHT22;10382;49.140;9.234;2022-09-29T07:52:18;13.90;99.90
20446;DHT22;10382;49.140;9.234;2022-09-29T07:54:45;14.00;99.90
20446;DHT22;10382;49.140;9.234;2022-09-29T07:57:13;14.20;99.90
20446;DHT22;10382;49.140;9.234;2022-09-29T07:59:40;14.40;99.90
20446;DHT22;10382;49.140;9.234;2022-09-29T08:02:08;14.60;99.90
20446;DHT22;10382;49.140;9.234;2022-09-29T08:04:35;14.90;99.90
20446;DHT22;10382;49.140;9.234;2022-09-29T08:07:02;15.10;99.90
20446;DHT22;10382;49.140;9.234;2022-09-29T08:09:29;15.30;99.90
20446;DHT22;10382;49.140;9.234;2022-09-29T08:11:56;15.40;99.90
20446;DHT22;10382;49.140;9.234;2022-09-29T08:14:25;15.60;99.90
20446;DHT22;10382;49.140;9.234;2022-09-29T08:16:52;16.10;99.90
20446;DHT22;10382;49.140;9.234;2022-09-29T08:19:19;16.90;99.90
20446;DHT22;10382;49.140;9.234;2022-09-29T08:21:46;18.00;99.90
20446;DHT22;10382;49.140;9.234;2022-09-29T08:24:14;18.70;99.90
20446;DHT22;10382;49.140;9.234;2022-09-29T08:26:42;19.40;99.90
20446;DHT22;10382;49.140;9.234;2022-09-29T08:29:10;20.10;99.90
20446;DHT22;10382;49.140;9.234;2022-09-29T08:31:38;20.60;99.90
20446;DHT22;10382;49.140;9.234;2022-09-29T08:34:05;20.80;99.90
20446;DHT22;10382;49.140;9.234;2022-09-29T08:36:32;20.90;99.90
20446;DHT22;10382;49.140;9.234;2022-09-29T08:39:00;20.80;99.90
20446;DHT22;10382;49.140;9.234;2022-09-29T08:41:34;20.80;99.90
20446;DHT22;10382;49.140;9.234;2022-09-29T08:44:10;20.70;99.90
20446;DHT22;10382;49.140;9.234;2022-09-29T08:46:42;20.70;99.90
20446;DHT22;10382;49.140;9.234;2022-09-29T08:49:13;20.60;99.90
20446;DHT22;10382;49.140;9.234;2022-09-29T08:51:45;20.50;99.90
20446;DHT22;10382;49.140;9.234;2022-09-29T08:54:21;20.30;99.90
20446;DHT22;10382;49.140;9.234;2022-09-29T08:56:50;20.30;99.90
20446;DHT22;10382;49.140;9.234;2022-09-29T08:59:17;20.40;99.90
20446;DHT22;10382;49.140;9.234;2022-09-29T09:01:57;20.50;99.90
20446;DHT22;10382;49.140;9.234;2022-09-29T09:04:44;20.70;99.90
20446;DHT22;10382;49.140;9.234;2022-09-29T09:07:22;20.80;99.90
20446;DHT22;10382;49.140;9.234;2022-09-29T09:09:59;20.80;99.90
20446;DHT22;10382;49.140;9.234;2022-09-29T09:12:47;21.10;99.90
20446;DHT22;10382;49.140;9.234;2022-09-29T09:15:31;21.80;99.90
20446;DHT22;10382;49.140;9.234;2022-09-29T09:18:20;22.60;99.90
20446;DHT22;10382;49.140;9.234;2022-09-29T09:20:52;23.60;99.90
20446;DHT22;10382;49.140;9.234;2022-09-29T09:23:24;24.50;99.90
20446;DHT22;10382;49.140;9.234;2022-09-29T09:25:55;25.10;97.60
20446;DHT22;10382;49.140;9.234;2022-09-29T09:28:26;25.10;95.40
20446;DHT22;10382;49.140;9.234;2022-09-29T09:30:57;24.80;94.80
20446;DHT22;10382;49.140;9.234;2022-09-29T09:33:30;24.50;95.40
20446;DHT22;10382;49.140;9.234;2022-09-29T09:36:02;24.40;93.80
20446;DHT22;10382;49.140;9.234;2022-09-29T09:38:43;24.00;94.30
20446;DHT22;10382;49.140;9.234;2022-09-29T09:41:13;23.60;95.40
20446;DHT22;10382;49.140;9.234;2022-09-29T09:43:44;23.60;96.50
20446;DHT22;10382;49.140;9.234;2022-09-29T09:46:16;24.00;95.10
20446;DHT22;10382;49.140;9.234;2022-09-29T09:48:55;24.20;95.70
20446;DHT22;10382;49.140;9.234;2022-09-29T09:51:32;24.90;93.50
20446;DHT22;10382;49.140;9.234;2022-09-29T09:54:03;25.00;91.80
20446;DHT22;10382;49.140;9.234;2022-09-29T09:56:48;24.90;91.40
20446;DHT22;10382;49.140;9.234;2022-09-29T09:59:25;25.00;91.60
20446;DHT22;10382;49.140;9.234;2022-09-29T10:01:57;25.20;92.50
20446;DHT22;10382;49.140;9.234;2022-09-29T10:04:25;25.90;89.80
20446;DHT22;10382;49.140;9.234;2022-09-29T10:06:52;26.50;85.20
20446;DHT22;10382;49.140;9.234;2022-09-29T10:09:19;27.20;83.00
20446;DHT22;10382;49.140;9.234;2022-09-29T10:11:46;28.00;81.20
20446;DHT22;10382;49.140;9.234;2022-09-29T10:14:15;28.30;78.40
20446;DHT22;10382;49.140;9.234;2022-09-29T10:16:48;28.40;75.60
20446;DHT22;10382;49.140;9.234;2022-09-29T10:19:20;28.80;72.90
20446;DHT22;10382;49.140;9.234;2022-09-29T10:21:49;29.10;69.00
20446;DHT22;10382;49.140;9.234;2022-09-29T10:24:22;29.00;66.80
20446;DHT22;10382;49.140;9.234;2022-09-29T10:26:51;28.60;68.00
20446;DHT22;10382;49.140;9.234;2022-09-29T10:29:23;27.70;68.10
20446;DHT22;10382;49.140;9.234;2022-09-29T10:31:59;27.00;68.70
20446;DHT22;10382;49.140;9.234;2022-09-29T10:34:28;26.40;71.00
20446;DHT22;10382;49.140;9.234;2022-09-29T10:36:58;25.70;72.70
20446;DHT22;10382;49.140;9.234;2022-09-29T10:39:31;24.90;74.40
20446;DHT22;10382;49.140;9.234;2022-09-29T10:41:59;24.20;77.10
20446;DHT22;10382;49.140;9.234;2022-09-29T10:44:31;23.80;79.30
20446;DHT22;10382;49.140;9.234;2022-09-29T10:46:58;23.50;80.60
20446;DHT22;10382;49.140;9.234;2022-09-29T10:49:26;23.80;83.30
20446;DHT22;10382;49.140;9.234;2022-09-29T10:52:02;23.90;80.30
20446;DHT22;10382;49.140;9.234;2022-09-29T10:54:33;24.00;81.50
20446;DHT22;10382;49.140;9.234;2022-09-29T10:57:11;24.20;79.70
20446;DHT22;10382;49.140;9.234;2022-09-29T10:59:45;24.20;81.20
20446;DHT22;10382;49.140;9.234;2022-09-29T11:02:19;24.30;79.30
20446;DHT22;10382;49.140;9.234;2022-09-29T11:04:47;24.40;79.70
20446;DHT22;10382;49.140;9.234;2022-09-29T11:07:16;24.60;78.80
20446;DHT22;10382;49.140;9.234;2022-09-29T11:09:43;24.60;78.40
20446;DHT22;10382;49.140;9.234;2022-09-29T11:12:26;24.30;78.30
20446;DHT22;10382;49.140;9.234;2022-09-29T11:14:53;23.90;79.80
20446;DHT22;10382;49.140;9.234;2022-09-29T11:17:22;23.70;80.60
20446;DHT22;10382;49.140;9.234;2022-09-29T11:19:51;23.50;81.60
20446;DHT22;10382;49.140;9.234;2022-09-29T11:22:46;23.20;80.90
20446;DHT22;10382;49.140;9.234;2022-09-29T11:28:42;21.90;86.60
20446;DHT22;10382;49.140;9.234;2022-09-29T11:31:22;21.50;90.00
20446;DHT22;10382;49.140;9.234;2022-09-29T11:33:57;21.00;87.60
20446;DHT22;10382;49.140;9.234;2022-09-29T11:36:32;20.30;90.40
20446;DHT22;10382;49.140;9.234;2022-09-29T11:39:23;19.60;91.20
20446;DHT22;10382;49.140;9.234;2022-09-29T11:42:06;19.00;92.90
20446;DHT22;10382;49.140;9.234;2022-09-29T11:50:36;18.10;96.90
20446;DHT22;10382;49.140;9.234;2022-09-29T11:53:18;18.00;98.30
20446;DHT22;10382;49.140;9.234;2022-09-29T11:56:03;18.00;99.80
20446;DHT22;10382;49.140;9.234;2022-09-29T11:58:47;18.00;98.50
20446;DHT22;10382;49.140;9.234;2022-09-29T12:01:25;18.00;99.70
20446;DHT22;10382;49.140;9.234;2022-09-29T12:04:09;18.00;99.90
20446;DHT22;10382;49.140;9.234;2022-09-29T12:06:52;18.10;99.70
20446;DHT22;10382;49.140;9.234;2022-09-29T12:09:43;18.20;99.80
20446;DHT22;10382;49.140;9.234;2022-09-29T12:12:22;18.30;99.90
20446;DHT22;10382;49.140;9.234;2022-09-29T12:15:05;18.60;99.80
20446;DHT22;10382;49.140;9.234;2022-09-29T12:17:37;18.90;98.60
20446;DHT22;10382;49.140;9.234;2022-09-29T12:20:15;19.10;99.00
20446;DHT22;10382;49.140;9.234;2022-09-29T12:22:45;19.30;99.40
20446;DHT22;10382;49.140;9.234;2022-09-29T12:25:15;19.50;98.00
20446;DHT22;10382;49.140;9.234;2022-09-29T12:27:45;19.50;97.70
20446;DHT22;10382;49.140;9.234;2022-09-29T12:30:17;19.70;98.10
20446;DHT22;10382;49.140;9.234;2022-09-29T12:32:50;19.90;96.80
20446;DHT22;10382;49.140;9.234;2022-09-29T12:35:22;19.90;95.10
20446;DHT22;10382;49.140;9.234;2022-09-29T12:37:55;19.80;94.10
20446;DHT22;10382;49.140;9.234;2022-09-29T12:40:27;19.70;94.30
20446;DHT22;10382;49.140;9.234;2022-09-29T12:43:12;19.90;95.40
20446;DHT22;10382;49.140;9.234;2022-09-29T12:45:50;20.50;95.10
20446;DHT22;10382;49.140;9.234;2022-09-29T12:48:36;21.30;94.10
20446;DHT22;10382;49.140;9.234;2022-09-29T12:51:11;22.10;92.80
20446;DHT22;10382;49.140;9.234;2022-09-29T12:53:47;22.40;91.60
20446;DHT22;10382;49.140;9.234;2022-09-29T12:56:20;22.50;91.30
20446;DHT22;10382;49.140;9.234;2022-09-29T12:58:53;22.50;91.20
20446;DHT22;10382;49.140;9.234;2022-09-29T13:01:26;22.50;91.30
20446;DHT22;10382;49.140;9.234;2022-09-29T13:07:40;22.30;88.50
20446;DHT22;10382;49.140;9.234;2022-09-29T13:10:27;22.00;89.30
20446;DHT22;10382;49.140;9.234;2022-09-29T13:16:12;21.40;89.20
20446;DHT22;10382;49.140;9.234;2022-09-29T13:21:38;21.20;90.00
20446;DHT22;10382;49.140;9.234;2022-09-29T13:24:34;21.10;89.90
20446;DHT22;10382;49.140;9.234;2022-09-29T13:27:28;21.10;87.00
20446;DHT22;10382;49.140;9.234;2022-09-29T13:30:03;20.90;88.30
20446;DHT22;10382;49.140;9.234;2022-09-29T13:32:38;20.80;88.80
20446;DHT22;10382;49.140;9.234;2022-09-29T13:35:11;20.70;90.40
20446;DHT22;10382;49.140;9.234;2022-09-29T13:37:45;20.50;90.40
20446;DHT22;10382;49.140;9.234;2022-09-29T13:40:19;20.20;90.50
20446;DHT22;10382;49.140;9.234;2022-09-29T13:42:48;20.20;90.80
20446;DHT22;10382;49.140;9.234;2022-09-29T13:45:41;20.20;91.30
20446;DHT22;10382;49.140;9.234;2022-09-29T13:48:36;20.40;91.90
20446;DHT22;10382;49.140;9.234;2022-09-29T13:54:34;21.30;90.80
20446;DHT22;10382;49.140;9.234;2022-09-29T14:00:14;23.10;84.40
20446;DHT22;10382;49.140;9.234;2022-09-29T14:02:43;24.30;82.90
20446;DHT22;10382;49.140;9.234;2022-09-29T14:05:37;24.90;75.90
20446;DHT22;10382;49.140;9.234;2022-09-29T14:08:15;24.80;75.10
20446;DHT22;10382;49.140;9.234;2022-09-29T14:10:46;24.50;74.30
20446;DHT22;10382;49.140;9.234;2022-09-29T14:13:20;24.10;73.20
20446;DHT22;10382;49.140;9.234;2022-09-29T14:15:53;23.60;74.80
20446;DHT22;10382;49.140;9.234;2022-09-29T14:18:29;23.20;75.30
20446;DHT22;10382;49.140;9.234;2022-09-29T14:21:00;23.00;78.00
20446;DHT22;10382;49.140;9.234;2022-09-29T14:23:49;22.70;79.00
20446;DHT22;10382;49.140;9.234;2022-09-29T14:26:44;22.20;80.70
20446;DHT22;10382;49.140;9.234;2022-09-29T14:29:16;21.80;82.90
20446;DHT22;10382;49.140;9.234;2022-09-29T14:31:49;21.40;81.30
20446;DHT22;10382;49.140;9.234;2022-09-29T14:34:19;21.20;85.30
20446;DHT22;10382;49.140;9.234;2022-09-29T14:36:48;21.00;86.50
20446;DHT22;10382;49.140;9.234;2022-09-29T14:39:17;20.80;88.20
20446;DHT22;10382;49.140;9.234;2022-09-29T14:41:45;20.70;89.90
20446;DHT22;10382;49.140;9.234;2022-09-29T14:44:18;20.70;90.30
20446;DHT22;10382;49.140;9.234;2022-09-29T14:47:00;20.60;89.60
20446;DHT22;10382;49.140;9.234;2022-09-29T14:50:02;20.60;89.70
20446;DHT22;10382;49.140;9.234;2022-09-29T14:53:03;20.70;91.00
20446;DHT22;10382;49.140;9.234;2022-09-29T14:55:41;20.80;91.00
20446;DHT22;10382;49.140;9.234;2022-09-29T14:58:24;20.80;90.80
20446;DHT22;10382;49.140;9.234;2022-09-29T15:01:04;20.60;90.50
20446;DHT22;10382;49.140;9.234;2022-09-29T15:03:38;20.50;91.10
20446;DHT22;10382;49.140;9.234;2022-09-29T15:06:11;20.30;91.40
20446;DHT22;10382;49.140;9.234;2022-09-29T15:08:40;20.30;91.90
20446;DHT22;10382;49.140;9.234;2022-09-29T15:11:28;20.30;91.90
20446;DHT22;10382;49.140;9.234;2022-09-29T15:13:56;20.40;92.20
20446;DHT22;10382;49.140;9.234;2022-09-29T15:16:30;20.40;91.20
20446;DHT22;10382;49.140;9.234;2022-09-29T15:19:10;20.50;91.60
20446;DHT22;10382;49.140;9.234;2022-09-29T15:21:44;20.60;92.30
20446;DHT22;10382;49.140;9.234;2022-09-29T15:24:42;20.70;92.00
20446;DHT22;10382;49.140;9.234;2022-09-29T15:27:14;20.70;91.30
20446;DHT22;10382;49.140;9.234;2022-09-29T15:29:45;20.50;90.80
20446;DHT22;10382;49.140;9.234;2022-09-29T15:32:20;20.40;91.40
20446;DHT22;10382;49.140;9.234;2022-09-29T15:34:49;20.40;92.20
20446;DHT22;10382;49.140;9.234;2022-09-29T15:37:16;20.30;91.60
20446;DHT22;10382;49.140;9.234;2022-09-29T15:39:47;20.20;92.10
20446;DHT22;10382;49.140;9.234;2022-09-29T15:42:17;20.20;93.20
20446;DHT22;10382;49.140;9.234;2022-09-29T15:44:51;20.20;93.30
20446;DHT22;10382;49.140;9.234;2022-09-29T15:47:25;20.10;93.40
20446;DHT22;10382;49.140;9.234;2022-09-29T15:49:53;20.00;94.00
20446;DHT22;10382;49.140;9.234;2022-09-29T15:52:20;19.80;94.80
20446;DHT22;10382;49.140;9.234;2022-09-29T15:54:53;19.60;94.20
20446;DHT22;10382;49.140;9.234;2022-09-29T15:57:40;19.40;94.10
20446;DHT22;10382;49.140;9.234;2022-09-29T16:03:24;19.40;95.50
20446;DHT22;10382;49.140;9.234;2022-09-29T16:06:11;19.50;95.80
20446;DHT22;10382;49.140;9.234;2022-09-29T16:08:42;19.50;95.90
20446;DHT22;10382;49.140;9.234;2022-09-29T16:11:19;19.50;96.20
20446;DHT22;10382;49.140;9.234;2022-09-29T16:13:52;19.30;96.40
20446;DHT22;10382;49.140;9.234;2022-09-29T16:16:26;19.10;96.90
20446;DHT22;10382;49.140;9.234;2022-09-29T16:19:00;18.90;98.20
20446;DHT22;10382;49.140;9.234;2022-09-29T16:21:33;18.70;98.70
20446;DHT22;10382;49.140;9.234;2022-09-29T16:24:05;18.60;99.00
20446;DHT22;10382;49.140;9.234;2022-09-29T16:26:36;18.30;99.70
20446;DHT22;10382;49.140;9.234;2022-09-29T16:31:48;18.10;99.90
20446;DHT22;10382;49.140;9.234;2022-09-29T16:34:25;18.00;99.90